createdAt,value
2022-10-11T00:01:25.343Z,5.43
2022-10-11T00:03:52.112Z,4.43
2022-10-11T00:06:18.882Z,5.15
2022-10-11T00:08:45.661Z,4.63
2022-10-11T00:11:12.403Z,6.13
2022-10-11T00:13:39.201Z,5.10
2022-10-11T00:16:11.390Z,4.63
2022-10-11T00:18:39.031Z,4.57
2022-10-11T00:21:08.874Z,4.88
2022-10-11T00:23:36.010Z,4.68
2022-10-11T00:26:05.688Z,4.38
2022-10-11T00:28:32.833Z,4.82
2022-10-11T00:30:59.996Z,4.20
2022-10-11T00:33:26.877Z,3.55
2022-10-11T00:35:53.673Z,4.40
2022-10-11T00:38:20.550Z,4.53
2022-10-11T00:40:47.355Z,4.32
2022-10-11T00:43:18.033Z,4.25
2022-10-11T00:45:53.601Z,3.95
2022-10-11T00:48:38.758Z,3.70
2022-10-11T00:51:14.172Z,4.43
2022-10-11T00:53:41.763Z,4.18
2022-10-11T00:56:24.986Z,3.30
2022-10-11T00:58:52.511Z,3.53
2022-10-11T01:01:19.433Z,3.33
2022-10-11T01:03:46.944Z,3.45
2022-10-11T01:06:13.720Z,3.90
2022-10-11T01:08:40.688Z,3.50
2022-10-11T01:11:14.661Z,3.75
2022-10-11T01:14:01.634Z,4.20
2022-10-11T01:16:55.128Z,3.92
2022-10-11T01:19:46.201Z,3.72
2022-10-11T01:22:48.324Z,3.45
2022-10-11T01:25:46.935Z,3.85
2022-10-11T01:28:32.503Z,3.72
2022-10-11T01:31:07.426Z,4.57
2022-10-11T01:33:55.539Z,5.30
2022-10-11T01:36:28.072Z,4.75
2022-10-11T01:39:03.686Z,6.18
2022-10-11T01:41:43.407Z,7.38
2022-10-11T01:44:12.660Z,8.25
2022-10-11T01:46:40.945Z,9.38
2022-10-11T01:49:08.417Z,9.25
2022-10-11T01:51:47.543Z,10.48
2022-10-11T01:54:22.670Z,10.98
2022-10-11T01:57:20.093Z,8.90
2022-10-11T02:00:14.116Z,9.90
2022-10-11T02:02:43.861Z,9.38
2022-10-11T02:05:29.397Z,10.02
2022-10-11T02:08:06.178Z,11.17
2022-10-11T02:10:39.756Z,11.27
2022-10-11T02:13:09.420Z,10.07
2022-10-11T02:15:40.180Z,9.55
2022-10-11T02:18:15.650Z,7.40
2022-10-11T02:20:43.794Z,8.32
2022-10-11T02:23:28.065Z,8.35
2022-10-11T02:25:57.232Z,7.53
2022-10-11T02:28:29.806Z,6.57
2022-10-11T02:30:58.321Z,6.78
2022-10-11T02:33:36.413Z,5.60
2022-10-11T02:36:31.272Z,6.28
2022-10-11T02:39:05.104Z,6.18
2022-10-11T02:41:38.553Z,5.85
2022-10-11T02:44:20.412Z,4.95
2022-10-11T02:46:48.235Z,4.90
2022-10-11T02:49:16.282Z,4.78
2022-10-11T02:51:43.465Z,4.53
2022-10-11T02:54:10.257Z,4.60
2022-10-11T02:56:37.038Z,4.18
2022-10-11T02:59:03.968Z,4.15
2022-10-11T03:01:30.749Z,4.30
2022-10-11T03:03:57.608Z,4.22
2022-10-11T03:06:24.422Z,4.18
2022-10-11T03:08:51.174Z,4.05
2022-10-11T03:11:17.960Z,4.13
2022-10-11T03:13:44.783Z,4.28
2022-10-11T03:16:11.954Z,3.35
2022-10-11T03:18:38.963Z,3.63
2022-10-11T03:21:06.035Z,3.90
2022-10-11T03:23:32.794Z,3.90
2022-10-11T03:25:59.582Z,4.03
2022-10-11T03:28:26.586Z,4.72
2022-10-11T03:30:53.438Z,4.40
2022-10-11T03:33:20.435Z,4.40
2022-10-11T03:35:48.819Z,4.97
2022-10-11T03:38:19.258Z,4.57
2022-10-11T03:40:46.186Z,4.38
2022-10-11T03:43:13.335Z,3.95
2022-10-11T03:45:42.428Z,5.60
2022-10-11T03:48:09.722Z,6.93
2022-10-11T03:50:36.771Z,4.60
2022-10-11T03:53:04.235Z,4.80
2022-10-11T03:55:30.999Z,4.82
2022-10-11T03:57:57.817Z,4.60
2022-10-11T04:00:24.594Z,4.28
2022-10-11T04:02:51.481Z,4.55
2022-10-11T04:05:18.451Z,4.35
2022-10-11T04:07:45.244Z,4.47
2022-10-11T04:10:12.002Z,4.43
2022-10-11T04:12:39.324Z,4.05
2022-10-11T04:15:07.422Z,4.30
2022-10-11T04:17:34.255Z,4.30
2022-10-11T04:20:01.038Z,5.30
2022-10-11T04:22:27.809Z,4.75
2022-10-11T04:24:54.550Z,4.38
2022-10-11T04:27:21.552Z,4.60
2022-10-11T04:29:48.308Z,4.80
2022-10-11T04:32:15.102Z,5.07
2022-10-11T04:34:42.173Z,4.22
2022-10-11T04:37:08.899Z,4.20
2022-10-11T04:39:35.690Z,4.28
2022-10-11T04:42:02.546Z,3.90
2022-10-11T04:44:29.291Z,3.72
2022-10-11T04:46:56.114Z,3.80
2022-10-11T04:49:23.262Z,4.22
2022-10-11T04:51:50.099Z,3.55
2022-10-11T04:54:16.856Z,3.55
2022-10-11T04:56:43.708Z,3.60
2022-10-11T04:59:10.803Z,3.67
2022-10-11T05:01:37.717Z,3.20
2022-10-11T05:04:04.623Z,3.33
2022-10-11T05:06:31.651Z,4.35
2022-10-11T05:08:58.390Z,4.82
2022-10-11T05:11:25.197Z,4.07
2022-10-11T05:13:52.005Z,3.85
2022-10-11T05:16:19.005Z,3.88
2022-10-11T05:18:45.768Z,5.53
2022-10-11T05:21:18.450Z,6.10
2022-10-11T05:23:46.686Z,4.90
2022-10-11T05:26:13.885Z,4.25
2022-10-11T05:28:40.822Z,4.88
2022-10-11T05:31:07.752Z,4.30
2022-10-11T05:33:34.732Z,4.25
2022-10-11T05:36:01.838Z,4.32
2022-10-11T05:38:28.956Z,4.00
2022-10-11T05:41:00.108Z,4.15
2022-10-11T05:43:27.357Z,4.22
2022-10-11T05:45:54.303Z,7.30
2022-10-11T05:48:21.052Z,6.72
2022-10-11T05:50:48.129Z,5.57
2022-10-11T05:53:14.889Z,4.03
2022-10-11T05:55:43.602Z,3.53
2022-10-11T05:58:13.589Z,5.35
2022-10-11T06:00:41.008Z,3.75
2022-10-11T06:03:08.759Z,3.55
2022-10-11T06:05:36.067Z,3.08
2022-10-11T06:08:04.083Z,3.42
2022-10-11T06:10:30.901Z,2.67
2022-10-11T06:12:57.816Z,3.20
2022-10-11T06:15:24.893Z,8.40
2022-10-11T06:17:51.757Z,3.20
2022-10-11T06:20:18.580Z,2.97
2022-10-11T06:22:45.386Z,2.85
2022-10-11T06:25:12.306Z,3.78
2022-10-11T06:27:39.030Z,2.30
2022-10-11T06:30:07.369Z,3.00
2022-10-11T06:32:34.145Z,2.33
2022-10-11T06:35:03.269Z,2.92
2022-10-11T06:37:30.172Z,3.22
2022-10-11T06:39:56.940Z,2.70
2022-10-11T06:42:23.743Z,2.40
2022-10-11T06:44:50.533Z,3.28
2022-10-11T06:47:17.323Z,3.42
2022-10-11T06:49:44.088Z,2.50
2022-10-11T06:52:26.148Z,3.95
2022-10-11T06:54:52.888Z,2.45
2022-10-11T06:57:19.645Z,2.67
2022-10-11T06:59:46.527Z,2.70
2022-10-11T07:02:13.258Z,2.60
2022-10-11T07:04:39.973Z,4.22
2022-10-11T07:07:06.755Z,3.55
2022-10-11T07:09:34.557Z,2.85
2022-10-11T07:12:01.279Z,2.40
2022-10-11T07:14:28.180Z,2.20
2022-10-11T07:16:54.985Z,2.33
2022-10-11T07:19:21.782Z,2.97
2022-10-11T07:21:48.824Z,1.88
2022-10-11T07:24:15.627Z,1.88
2022-10-11T07:26:42.437Z,2.35
2022-10-11T07:29:10.845Z,2.20
2022-10-11T07:31:40.159Z,1.83
2022-10-11T07:34:07.065Z,1.90
2022-10-11T07:36:34.078Z,2.13
2022-10-11T07:39:00.905Z,2.00
2022-10-11T07:41:27.719Z,2.25
2022-10-11T07:43:55.120Z,2.47
2022-10-11T07:46:22.053Z,1.90
2022-10-11T07:48:50.308Z,2.50
2022-10-11T07:51:21.541Z,2.00
2022-10-11T07:53:58.260Z,1.27
2022-10-11T07:56:28.022Z,1.60
2022-10-11T07:58:58.061Z,1.48
2022-10-11T08:01:26.018Z,1.58
2022-10-11T08:03:53.710Z,1.80
2022-10-11T08:06:27.316Z,1.95
2022-10-11T08:08:54.134Z,1.05
2022-10-11T08:11:23.027Z,1.00
2022-10-11T08:13:49.990Z,0.88
2022-10-11T08:16:17.270Z,0.93
2022-10-11T08:18:44.113Z,1.23
2022-10-11T08:21:13.783Z,0.80
2022-10-11T08:23:40.612Z,0.88
2022-10-11T08:26:08.087Z,1.05
2022-10-11T08:28:35.517Z,0.82
2022-10-11T08:31:03.690Z,0.82
2022-10-11T08:33:31.069Z,0.90
2022-10-11T08:35:58.429Z,0.88
2022-10-11T08:38:25.408Z,1.13
2022-10-11T08:40:58.594Z,1.20
2022-10-11T08:43:37.513Z,0.98
2022-10-11T08:46:06.043Z,1.10
2022-10-11T08:48:43.210Z,1.10
2022-10-11T08:51:32.146Z,1.02
2022-10-11T08:54:14.021Z,0.90
2022-10-11T08:56:43.289Z,1.17
2022-10-11T08:59:13.074Z,1.33
2022-10-11T09:02:01.615Z,1.25
2022-10-11T09:04:28.657Z,1.30
2022-10-11T09:07:06.376Z,0.90
2022-10-11T09:09:57.765Z,0.95
2022-10-11T09:13:09.087Z,0.90
2022-10-11T09:15:55.837Z,1.30
2022-10-11T09:18:42.829Z,1.00
2022-10-11T09:21:18.850Z,2.00
2022-10-11T09:24:21.758Z,2.70
2022-10-11T09:26:56.520Z,3.63
2022-10-11T09:29:32.458Z,4.80
2022-10-11T09:31:59.374Z,7.30
2022-10-11T09:34:32.369Z,6.88
2022-10-11T09:37:21.217Z,9.32
2022-10-11T09:40:03.259Z,10.35
2022-10-11T09:42:29.985Z,17.50
2022-10-11T09:44:57.520Z,21.85
2022-10-11T09:47:29.471Z,16.45
2022-10-11T09:50:06.475Z,20.67
2022-10-11T09:52:33.706Z,15.98
2022-10-11T09:55:02.973Z,18.05
2022-10-11T09:57:35.665Z,18.88
2022-10-11T10:00:07.263Z,19.52
2022-10-11T10:02:58.637Z,24.35
2022-10-11T10:05:26.897Z,26.67
2022-10-11T10:08:04.729Z,26.83
2022-10-11T10:10:45.953Z,17.58
2022-10-11T10:13:22.351Z,18.98
2022-10-11T10:15:53.491Z,21.63
2022-10-11T10:18:57.814Z,23.77
2022-10-11T10:21:31.751Z,27.67
2022-10-11T10:24:03.221Z,25.15
2022-10-11T10:26:30.619Z,26.35
2022-10-11T10:29:02.931Z,22.80
2022-10-11T10:32:13.513Z,21.23
2022-10-11T10:34:55.283Z,21.20
2022-10-11T10:37:43.359Z,18.40
2022-10-11T10:40:23.073Z,22.40
2022-10-11T10:42:50.913Z,22.98
2022-10-11T10:45:21.493Z,17.92
2022-10-11T10:47:51.395Z,18.85
2022-10-11T10:50:21.164Z,19.73
2022-10-11T10:52:59.669Z,20.38
2022-10-11T10:55:41.835Z,17.70
2022-10-11T10:58:26.808Z,15.02
2022-10-11T11:01:05.187Z,15.00
2022-10-11T11:03:43.793Z,13.55
2022-10-11T11:06:27.489Z,13.50
2022-10-11T11:09:37.327Z,12.48
2022-10-11T11:12:15.128Z,14.18
2022-10-11T11:15:01.808Z,14.57
2022-10-11T11:17:34.329Z,13.00
2022-10-11T11:20:09.101Z,14.20
2022-10-11T11:22:38.915Z,14.07
2022-10-11T11:25:24.367Z,12.45
2022-10-11T11:28:13.101Z,11.90
2022-10-11T11:31:20.653Z,11.23
2022-10-11T11:33:59.618Z,10.88
2022-10-11T11:36:46.078Z,9.27
2022-10-11T11:39:35.892Z,9.43
2022-10-11T11:42:15.402Z,9.80
2022-10-11T11:44:49.304Z,8.93
2022-10-11T11:47:20.320Z,9.07
2022-10-11T11:49:53.847Z,7.97
2022-10-11T11:52:44.119Z,8.77
2022-10-11T11:55:25.336Z,8.30
2022-10-11T11:58:23.171Z,7.22
2022-10-11T12:01:37.418Z,7.10
2022-10-11T12:04:12.785Z,7.22
2022-10-11T12:06:52.435Z,5.40
2022-10-11T12:09:27.479Z,3.83
2022-10-11T12:12:25.791Z,2.40
2022-10-11T12:15:04.855Z,2.38
2022-10-11T12:17:33.341Z,2.05
2022-10-11T12:20:03.045Z,1.73
2022-10-11T12:22:29.780Z,2.10
2022-10-11T12:25:01.934Z,2.00
2022-10-11T12:27:44.326Z,2.10
2022-10-11T12:30:48.375Z,1.90
2022-10-11T12:33:25.902Z,3.38
2022-10-11T12:35:55.721Z,2.03
2022-10-11T12:38:30.188Z,1.80
2022-10-11T12:40:57.195Z,1.80
2022-10-11T12:43:28.247Z,2.03
2022-10-11T12:45:55.041Z,1.23
2022-10-11T12:48:41.093Z,1.50
2022-10-11T12:51:55.526Z,1.50
2022-10-11T12:55:03.490Z,1.40
2022-10-11T12:57:56.790Z,1.58
2022-10-11T13:00:29.664Z,1.60
2022-10-11T13:03:17.243Z,1.50
2022-10-11T13:05:49.698Z,1.30
2022-10-11T13:08:27.541Z,1.77
2022-10-11T13:10:59.256Z,1.42
2022-10-11T13:13:45.014Z,2.08
2022-10-11T13:16:18.750Z,1.30
2022-10-11T13:18:48.424Z,1.85
2022-10-11T13:21:36.241Z,1.95
2022-10-11T13:24:13.003Z,1.60
2022-10-11T13:26:41.044Z,1.38
2022-10-11T13:29:35.220Z,1.85
2022-10-11T13:32:11.073Z,1.50
2022-10-11T13:34:40.479Z,1.45
2022-10-11T13:37:12.992Z,1.10
2022-10-11T13:39:39.919Z,2.00
2022-10-11T13:42:11.721Z,2.63
2022-10-11T13:44:39.667Z,1.95
2022-10-11T13:47:06.768Z,1.35
2022-10-11T13:49:38.481Z,1.80
2022-10-11T13:52:27.139Z,1.63
2022-10-11T13:55:00.360Z,1.73
2022-10-11T13:57:35.883Z,1.52
2022-10-11T14:00:10.989Z,1.48
2022-10-11T14:02:38.299Z,2.30
2022-10-11T14:05:05.515Z,3.13
2022-10-11T14:07:38.175Z,2.45
2022-10-11T14:10:06.590Z,2.00
2022-10-11T14:12:38.506Z,1.50
2022-10-11T14:15:24.824Z,1.70
2022-10-11T14:17:51.740Z,1.80
2022-10-11T14:20:33.430Z,1.42
2022-10-11T14:23:00.265Z,1.42
2022-10-11T14:25:27.108Z,1.13
2022-10-11T14:27:54.662Z,1.23
2022-10-11T14:30:26.437Z,1.30
2022-10-11T14:32:57.674Z,1.83
2022-10-11T14:35:26.698Z,1.75
2022-10-11T14:37:53.857Z,2.20
2022-10-11T14:40:23.179Z,1.20
2022-10-11T14:42:50.474Z,1.20
2022-10-11T14:45:18.251Z,1.20
2022-10-11T14:47:45.355Z,1.08
2022-10-11T14:50:47.838Z,1.20
2022-10-11T14:53:14.635Z,1.17
2022-10-11T14:55:42.482Z,1.27
2022-10-11T14:58:11.681Z,1.40
2022-10-11T15:00:38.492Z,1.20
2022-10-11T15:03:07.321Z,1.70
2022-10-11T15:05:35.324Z,1.30
2022-10-11T15:08:07.090Z,1.88
2022-10-11T15:10:36.297Z,1.40
2022-10-11T15:13:03.914Z,1.73
2022-10-11T15:15:35.173Z,1.73
2022-10-11T15:18:04.035Z,1.70
2022-10-11T15:20:37.053Z,1.73
2022-10-11T15:23:05.471Z,2.60
2022-10-11T15:25:32.468Z,2.13
2022-10-11T15:27:59.612Z,2.65
2022-10-11T15:30:29.726Z,3.00
2022-10-11T15:32:56.519Z,3.50
2022-10-11T15:35:24.859Z,2.58
2022-10-11T15:37:57.282Z,2.55
2022-10-11T15:40:26.075Z,2.55
2022-10-11T15:42:54.537Z,2.60
2022-10-11T15:45:22.937Z,2.97
2022-10-11T15:47:50.329Z,3.33
2022-10-11T15:50:34.304Z,2.90
2022-10-11T15:53:04.804Z,3.20
2022-10-11T15:55:32.847Z,2.90
2022-10-11T15:58:01.139Z,3.60
2022-10-11T16:00:28.208Z,3.42
2022-10-11T16:02:56.660Z,3.63
2022-10-11T16:05:25.379Z,4.50
2022-10-11T16:07:53.383Z,4.15
2022-10-11T16:10:21.136Z,3.80
2022-10-11T16:12:47.956Z,3.85
2022-10-11T16:15:15.033Z,4.28
2022-10-11T16:17:41.820Z,4.50
2022-10-11T16:20:09.020Z,4.93
2022-10-11T16:22:36.187Z,5.28
2022-10-11T16:25:04.666Z,4.75
2022-10-11T16:27:31.903Z,5.10
2022-10-11T16:29:59.396Z,5.30
2022-10-11T16:32:27.383Z,5.03
2022-10-11T16:34:54.224Z,3.95
2022-10-11T16:37:20.985Z,5.10
2022-10-11T16:39:47.745Z,5.03
2022-10-11T16:42:14.555Z,4.78
2022-10-11T16:44:41.490Z,5.00
2022-10-11T16:47:08.297Z,5.10
2022-10-11T16:49:35.354Z,4.88
2022-10-11T16:52:03.941Z,5.00
2022-10-11T16:54:31.992Z,5.43
2022-10-11T16:56:59.550Z,5.22
2022-10-11T16:59:26.686Z,5.53
2022-10-11T17:01:53.616Z,5.10
2022-10-11T17:04:20.828Z,5.03
2022-10-11T17:06:47.621Z,5.15
2022-10-11T17:09:14.741Z,5.05
2022-10-11T17:11:41.891Z,5.00
2022-10-11T17:14:08.967Z,6.45
2022-10-11T17:16:35.999Z,6.45
2022-10-11T17:19:03.062Z,8.05
2022-10-11T17:21:30.116Z,7.68
2022-10-11T17:23:57.489Z,7.20
2022-10-11T17:26:26.597Z,7.03
2022-10-11T17:28:55.327Z,5.90
2022-10-11T17:31:22.795Z,6.20
2022-10-11T17:33:50.142Z,6.10
2022-10-11T17:36:27.864Z,6.07
2022-10-11T17:38:54.669Z,5.68
2022-10-11T17:41:21.586Z,5.47
2022-10-11T17:43:48.760Z,5.90
2022-10-11T17:46:17.227Z,5.70
2022-10-11T17:48:45.446Z,6.18
2022-10-11T17:51:15.797Z,6.15
2022-10-11T17:53:42.898Z,8.13
2022-10-11T17:56:12.885Z,8.85
2022-10-11T17:58:39.937Z,9.02
2022-10-11T18:01:13.494Z,9.48
2022-10-11T18:03:41.276Z,9.23
2022-10-11T18:06:10.827Z,9.90
2022-10-11T18:08:40.543Z,9.63
2022-10-11T18:11:13.194Z,11.02
2022-10-11T18:13:42.908Z,11.35
2022-10-11T18:16:10.770Z,11.50
2022-10-11T18:18:38.533Z,12.32
2022-10-11T18:21:05.770Z,11.57
2022-10-11T18:23:32.772Z,11.85
2022-10-11T18:25:59.659Z,10.27
2022-10-11T18:28:26.568Z,11.35
2022-10-11T18:30:53.360Z,10.98
2022-10-11T18:33:20.078Z,11.77
2022-10-11T18:35:46.974Z,11.23
2022-10-11T18:38:13.714Z,9.90
2022-10-11T18:40:44.744Z,11.20
2022-10-11T18:43:13.048Z,11.60
2022-10-11T18:45:39.794Z,12.73
2022-10-11T18:48:08.601Z,12.00
2022-10-11T18:50:35.749Z,13.07
2022-10-11T18:55:30.034Z,11.80
2022-10-11T18:57:56.861Z,13.23
2022-10-11T19:00:40.046Z,12.52
2022-10-11T19:03:08.007Z,14.45
2022-10-11T19:05:38.015Z,12.07
2022-10-11T19:08:05.102Z,12.05
2022-10-11T19:10:32.783Z,12.30
2022-10-11T19:12:59.540Z,11.75
2022-10-11T19:15:28.754Z,11.70
2022-10-11T19:17:55.940Z,11.57
2022-10-11T19:20:22.867Z,12.00
2022-10-11T19:22:49.730Z,10.52
2022-10-11T19:25:16.597Z,11.60
2022-10-11T19:27:43.365Z,10.35
2022-10-11T19:30:10.614Z,10.43
2022-10-11T19:32:37.473Z,10.55
2022-10-11T19:35:04.606Z,10.93
2022-10-11T19:37:31.656Z,12.35
2022-10-11T19:39:58.574Z,11.90
2022-10-11T19:42:25.347Z,13.27
2022-10-11T19:44:52.171Z,14.57
2022-10-11T19:47:18.983Z,15.02
2022-10-11T19:49:45.679Z,14.02
2022-10-11T19:52:13.344Z,15.20
2022-10-11T19:54:40.137Z,13.85
2022-10-11T19:57:08.807Z,14.23
2022-10-11T19:59:35.575Z,13.77
2022-10-11T20:02:02.355Z,12.68
2022-10-11T20:07:17.636Z,12.93
2022-10-11T20:09:44.396Z,13.23
2022-10-11T20:12:11.140Z,11.73
2022-10-11T20:14:37.945Z,12.60
2022-10-11T20:17:04.725Z,11.35
2022-10-11T20:19:31.891Z,12.07
2022-10-11T20:21:59.897Z,12.32
2022-10-11T20:24:28.944Z,11.82
2022-10-11T20:26:55.754Z,11.25
2022-10-11T20:29:28.183Z,10.82
2022-10-11T20:31:56.269Z,11.50
2022-10-11T20:34:23.438Z,10.07
2022-10-11T20:36:50.248Z,10.60
2022-10-11T20:39:17.895Z,9.60
2022-10-11T20:41:44.705Z,10.63
2022-10-11T20:44:13.154Z,9.88
2022-10-11T20:46:40.068Z,11.43
2022-10-11T20:49:09.801Z,10.75
2022-10-11T20:51:38.358Z,10.30
2022-10-11T20:54:06.111Z,9.07
2022-10-11T20:56:33.826Z,9.20
2022-10-11T20:59:00.857Z,8.63
2022-10-11T21:01:31.216Z,9.10
2022-10-11T21:03:59.595Z,8.90
2022-10-11T21:06:27.460Z,9.13
2022-10-11T21:08:59.017Z,8.20
2022-10-11T21:11:27.342Z,7.63
2022-10-11T21:13:59.177Z,8.40
2022-10-11T21:16:26.942Z,8.60
2022-10-11T21:18:55.502Z,7.57
2022-10-11T21:21:25.775Z,8.60
2022-10-11T21:23:57.181Z,8.63
2022-10-11T21:26:24.303Z,8.23
2022-10-11T21:28:51.235Z,8.35
2022-10-11T21:31:19.855Z,8.02
2022-10-11T21:33:46.871Z,8.73
2022-10-11T21:36:19.348Z,8.07
2022-10-11T21:38:46.514Z,8.15
2022-10-11T21:41:19.332Z,8.73
2022-10-11T21:43:47.287Z,7.65
2022-10-11T21:46:18.456Z,8.00
2022-10-11T21:48:45.732Z,7.72
2022-10-11T21:51:22.290Z,8.07
2022-10-11T21:53:49.361Z,7.40
2022-10-11T21:56:16.161Z,7.05
2022-10-11T21:58:43.134Z,6.38
2022-10-11T22:01:11.784Z,6.47
2022-10-11T22:03:38.594Z,5.40
2022-10-11T22:06:05.409Z,5.47
2022-10-11T22:08:32.567Z,5.38
2022-10-11T22:11:00.443Z,6.15
2022-10-11T22:13:29.193Z,6.25
2022-10-11T22:15:56.417Z,5.70
2022-10-11T22:18:24.360Z,5.82
2022-10-11T22:20:51.599Z,5.72
2022-10-11T22:23:19.254Z,5.30
2022-10-11T22:25:46.387Z,5.18
2022-10-11T22:28:13.732Z,6.05
2022-10-11T22:30:40.644Z,5.70
2022-10-11T22:33:07.451Z,7.35
2022-10-11T22:35:37.978Z,7.10
2022-10-11T22:38:06.325Z,5.97
2022-10-11T22:40:33.100Z,6.57
2022-10-11T22:42:59.904Z,5.95
2022-10-11T22:45:26.720Z,7.55
2022-10-11T22:47:53.523Z,7.20
2022-10-11T22:50:20.331Z,6.80
2022-10-11T22:52:47.367Z,7.10
2022-10-11T22:55:19.735Z,6.32
2022-10-11T22:57:47.104Z,6.35
2022-10-11T23:00:14.628Z,6.50
2022-10-11T23:02:41.344Z,6.22
2022-10-11T23:05:08.335Z,7.20
2022-10-11T23:07:35.380Z,6.72
2022-10-11T23:10:02.857Z,7.65
2022-10-11T23:12:29.619Z,7.03
2022-10-11T23:14:56.446Z,7.80
2022-10-11T23:17:23.166Z,6.70
2022-10-11T23:19:50.667Z,7.75
2022-10-11T23:22:17.384Z,7.07
2022-10-11T23:24:44.152Z,7.05
2022-10-11T23:27:11.131Z,6.75
2022-10-11T23:29:41.135Z,6.80
2022-10-11T23:32:08.973Z,6.93
2022-10-11T23:34:35.814Z,6.78
2022-10-11T23:37:02.770Z,6.90
2022-10-11T23:39:29.607Z,6.97
2022-10-11T23:41:56.430Z,7.00
2022-10-11T23:44:23.192Z,6.97
2022-10-11T23:46:49.928Z,7.40
2022-10-11T23:49:16.706Z,7.10
2022-10-11T23:51:43.445Z,8.18
2022-10-11T23:54:10.237Z,6.47
2022-10-11T23:56:37.029Z,7.22
2022-10-11T23:59:03.899Z,7.93
